Airport View

Enter AWOS ICAO identifier for current METAR.

ex. KFNL

KFNL 112156Z AUTO 03005KT 10SM CLR 02/M03 A2994 RMK AO2 SLP161 T00171028 FZRANO

11 Dec 2019 22:32

Frequency: 135.075

Phone: 970-669-9187

Other Area AWOS: KGXY - KLMO - KEIK - KBDU

TAF KBJC 111750Z 1118/1218 VRB06KT P6SM FEW150 BKN220 FM112000 01006KT P6SM SCT150 BKN220 FM120100 29010KT P6SM SCT100 BKN150 FM120800 25006KT P6SM SCT150